sensor_id;sensor_type;location;lat;lon;timestamp;pressure;altitude;pressure_sealevel;temperature;humidity
6224;BME280;3145;42.726;23.342;2023-03-16T00:02:17;94470.41;;;3.30;100.00
6224;BME280;3145;42.726;23.342;2023-03-16T00:04:43;94497.84;;;3.42;100.00
6224;BME280;3145;42.726;23.342;2023-03-16T00:07:12;94471.38;;;3.37;100.00
6224;BME280;3145;42.726;23.342;2023-03-16T00:09:39;94501.81;;;3.54;100.00
6224;BME280;3145;42.726;23.342;2023-03-16T00:12:11;94318.38;;;2.37;100.00
6224;BME280;3145;42.726;23.342;2023-03-16T00:14:41;94408.38;;;2.83;100.00
6224;BME280;3145;42.726;23.342;2023-03-16T00:17:08;94511.41;;;3.46;100.00
6224;BME280;3145;42.726;23.342;2023-03-16T00:19:43;94504.97;;;3.32;100.00
6224;BME280;3145;42.726;23.342;2023-03-16T00:22:11;94480.13;;;3.20;100.00
6224;BME280;3145;42.726;23.342;2023-03-16T00:24:39;94517.41;;;3.38;100.00
6224;BME280;3145;42.726;23.342;2023-03-16T00:27:09;94510.22;;;3.40;100.00
6224;BME280;3145;42.726;23.342;2023-03-16T00:29:40;94503.31;;;3.23;100.00
6224;BME280;3145;42.726;23.342;2023-03-16T00:32:12;94510.72;;;3.36;100.00
6224;BME280;3145;42.726;23.342;2023-03-16T00:34:39;94495.09;;;3.10;100.00
6224;BME280;3145;42.726;23.342;2023-03-16T00:37:05;94520.19;;;3.11;100.00
6224;BME280;3145;42.726;23.342;2023-03-16T00:39:32;94492.53;;;2.93;100.00
6224;BME280;3145;42.726;23.342;2023-03-16T00:42:00;94528.69;;;3.13;100.00
6224;BME280;3145;42.726;23.342;2023-03-16T00:44:28;94528.34;;;3.08;100.00
6224;BME280;3145;42.726;23.342;2023-03-16T00:46:55;94543.97;;;3.08;100.00
6224;BME280;3145;42.726;23.342;2023-03-16T00:49:22;94541.22;;;3.10;100.00
6224;BME280;3145;42.726;23.342;2023-03-16T00:51:49;94535.19;;;3.09;100.00
6224;BME280;3145;42.726;23.342;2023-03-16T00:54:16;94542.19;;;3.09;100.00
6224;BME280;3145;42.726;23.342;2023-03-16T00:56:44;94548.91;;;3.11;100.00
6224;BME280;3145;42.726;23.342;2023-03-16T00:59:11;94524.53;;;3.03;100.00
6224;BME280;3145;42.726;23.342;2023-03-16T01:01:39;94544.28;;;3.05;100.00
6224;BME280;3145;42.726;23.342;2023-03-16T01:04:06;94538.91;;;3.07;100.00
6224;BME280;3145;42.726;23.342;2023-03-16T01:06:33;94528.44;;;2.99;100.00
6224;BME280;3145;42.726;23.342;2023-03-16T01:09:00;94545.94;;;3.06;100.00
6224;BME280;3145;42.726;23.342;2023-03-16T01:11:30;94541.66;;;3.05;100.00
6224;BME280;3145;42.726;23.342;2023-03-16T01:13:59;94505.63;;;2.75;100.00
6224;BME280;3145;42.726;23.342;2023-03-16T01:16:26;94543.44;;;2.97;100.00
6224;BME280;3145;42.726;23.342;2023-03-16T01:18:54;94540.19;;;3.03;100.00
6224;BME280;3145;42.726;23.342;2023-03-16T01:21:22;94523.38;;;2.97;100.00
6224;BME280;3145;42.726;23.342;2023-03-16T01:23:49;94543.59;;;2.95;100.00
6224;BME280;3145;42.726;23.342;2023-03-16T01:26:18;94547.00;;;2.96;100.00
6224;BME280;3145;42.726;23.342;2023-03-16T01:28:45;94523.19;;;2.73;100.00
6224;BME280;3145;42.726;23.342;2023-03-16T01:31:13;94549.94;;;2.93;100.00
6224;BME280;3145;42.726;23.342;2023-03-16T01:33:40;94543.81;;;2.84;100.00
6224;BME280;3145;42.726;23.342;2023-03-16T01:36:11;94543.13;;;2.74;100.00
6224;BME280;3145;42.726;23.342;2023-03-16T01:38:39;94503.09;;;2.40;100.00
6224;BME280;3145;42.726;23.342;2023-03-16T01:41:06;94549.97;;;2.75;100.00
6224;BME280;3145;42.726;23.342;2023-03-16T01:43:35;94571.47;;;2.77;100.00
6224;BME280;3145;42.726;23.342;2023-03-16T01:46:21;94551.03;;;2.65;100.00
6224;BME280;3145;42.726;23.342;2023-03-16T01:48:55;94532.78;;;2.47;100.00
6224;BME280;3145;42.726;23.342;2023-03-16T01:51:28;94568.28;;;2.66;100.00
6224;BME280;3145;42.726;23.342;2023-03-16T01:54:00;94561.00;;;2.52;100.00
6224;BME280;3145;42.726;23.342;2023-03-16T01:56:31;94573.28;;;2.59;100.00
6224;BME280;3145;42.726;23.342;2023-03-16T01:59:01;94557.19;;;2.46;100.00
6224;BME280;3145;42.726;23.342;2023-03-16T02:01:31;94587.44;;;2.57;100.00
6224;BME280;3145;42.726;23.342;2023-03-16T02:04:04;94585.94;;;2.54;100.00
6224;BME280;3145;42.726;23.342;2023-03-16T02:06:34;94589.81;;;2.50;100.00
6224;BME280;3145;42.726;23.342;2023-03-16T02:09:03;94595.34;;;2.47;100.00
6224;BME280;3145;42.726;23.342;2023-03-16T02:11:31;94538.00;;;2.12;100.00
6224;BME280;3145;42.726;23.342;2023-03-16T02:14:02;94598.91;;;2.46;100.00
6224;BME280;3145;42.726;23.342;2023-03-16T02:16:31;94599.50;;;2.40;100.00
6224;BME280;3145;42.726;23.342;2023-03-16T02:18:58;94606.63;;;2.38;100.00
6224;BME280;3145;42.726;23.342;2023-03-16T02:21:30;94585.25;;;2.17;100.00
6224;BME280;3145;42.726;23.342;2023-03-16T02:24:01;94579.34;;;2.25;100.00
6224;BME280;3145;42.726;23.342;2023-03-16T02:26:33;94613.81;;;2.36;100.00
6224;BME280;3145;42.726;23.342;2023-03-16T02:29:13;94616.03;;;2.31;100.00
6224;BME280;3145;42.726;23.342;2023-03-16T02:31:45;94600.00;;;2.09;100.00
6224;BME280;3145;42.726;23.342;2023-03-16T02:34:12;94584.94;;;2.03;100.00
6224;BME280;3145;42.726;23.342;2023-03-16T02:36:42;94598.50;;;2.06;100.00
6224;BME280;3145;42.726;23.342;2023-03-16T02:39:11;94609.66;;;1.99;100.00
6224;BME280;3145;42.726;23.342;2023-03-16T02:41:38;94630.81;;;2.13;100.00
6224;BME280;3145;42.726;23.342;2023-03-16T02:44:09;94633.41;;;2.13;100.00
6224;BME280;3145;42.726;23.342;2023-03-16T02:46:41;94628.75;;;2.17;100.00
6224;BME280;3145;42.726;23.342;2023-03-16T02:49:13;94617.56;;;2.07;100.00
6224;BME280;3145;42.726;23.342;2023-03-16T02:51:42;94626.75;;;2.01;100.00
6224;BME280;3145;42.726;23.342;2023-03-16T02:54:09;94618.94;;;2.01;100.00
6224;BME280;3145;42.726;23.342;2023-03-16T02:56:37;94612.31;;;1.89;100.00
6224;BME280;3145;42.726;23.342;2023-03-16T02:59:04;94629.09;;;2.04;100.00
6224;BME280;3145;42.726;23.342;2023-03-16T03:01:30;94618.44;;;1.98;100.00
6224;BME280;3145;42.726;23.342;2023-03-16T03:03:59;94591.16;;;1.75;100.00
6224;BME280;3145;42.726;23.342;2023-03-16T03:06:27;94555.91;;;1.53;100.00
6224;BME280;3145;42.726;23.342;2023-03-16T03:08:55;94642.53;;;2.00;100.00
6224;BME280;3145;42.726;23.342;2023-03-16T03:11:22;94614.94;;;1.80;100.00
6224;BME280;3145;42.726;23.342;2023-03-16T03:13:48;94636.56;;;1.90;100.00
6224;BME280;3145;42.726;23.342;2023-03-16T03:16:15;94644.91;;;1.93;100.00
6224;BME280;3145;42.726;23.342;2023-03-16T03:18:42;94600.81;;;1.82;100.00
6224;BME280;3145;42.726;23.342;2023-03-16T03:21:09;94651.06;;;1.92;100.00
6224;BME280;3145;42.726;23.342;2023-03-16T03:23:37;94653.53;;;1.94;100.00
6224;BME280;3145;42.726;23.342;2023-03-16T03:26:04;94643.44;;;1.81;100.00
6224;BME280;3145;42.726;23.342;2023-03-16T03:28:31;94643.81;;;1.86;100.00
6224;BME280;3145;42.726;23.342;2023-03-16T03:30:59;94629.13;;;1.68;100.00
6224;BME280;3145;42.726;23.342;2023-03-16T03:33:25;94657.41;;;1.90;100.00
6224;BME280;3145;42.726;23.342;2023-03-16T03:35:53;94642.88;;;1.87;100.00
6224;BME280;3145;42.726;23.342;2023-03-16T03:38:22;94670.50;;;1.98;100.00
6224;BME280;3145;42.726;23.342;2023-03-16T03:40:51;94652.47;;;1.87;100.00
6224;BME280;3145;42.726;23.342;2023-03-16T03:43:18;94635.25;;;1.76;100.00
6224;BME280;3145;42.726;23.342;2023-03-16T03:45:45;94674.88;;;1.97;100.00
6224;BME280;3145;42.726;23.342;2023-03-16T03:48:12;94676.16;;;1.93;100.00
6224;BME280;3145;42.726;23.342;2023-03-16T03:50:39;94637.22;;;1.65;100.00
6224;BME280;3145;42.726;23.342;2023-03-16T03:53:06;94677.63;;;1.96;100.00
6224;BME280;3145;42.726;23.342;2023-03-16T03:55:32;94655.13;;;1.77;100.00
6224;BME280;3145;42.726;23.342;2023-03-16T03:58:00;94672.50;;;1.77;100.00
6224;BME280;3145;42.726;23.342;2023-03-16T04:00:27;94663.41;;;1.63;100.00
6224;BME280;3145;42.726;23.342;2023-03-16T04:02:54;94687.03;;;1.79;100.00
6224;BME280;3145;42.726;23.342;2023-03-16T04:05:21;94699.88;;;1.81;100.00
6224;BME280;3145;42.726;23.342;2023-03-16T04:07:51;94664.66;;;1.59;100.00
6224;BME280;3145;42.726;23.342;2023-03-16T04:10:21;94694.84;;;1.79;100.00
6224;BME280;3145;42.726;23.342;2023-03-16T04:12:48;94702.06;;;1.85;100.00
6224;BME280;3145;42.726;23.342;2023-03-16T04:15:16;94664.59;;;1.69;100.00
6224;BME280;3145;42.726;23.342;2023-03-16T04:17:43;94699.84;;;1.90;100.00
6224;BME280;3145;42.726;23.342;2023-03-16T04:20:10;94705.06;;;1.90;100.00
6224;BME280;3145;42.726;23.342;2023-03-16T04:22:43;94680.88;;;1.80;100.00
6224;BME280;3145;42.726;23.342;2023-03-16T04:25:11;94708.50;;;1.91;100.00
6224;BME280;3145;42.726;23.342;2023-03-16T04:27:39;94653.97;;;1.53;100.00
6224;BME280;3145;42.726;23.342;2023-03-16T04:30:08;94700.59;;;1.83;100.00
6224;BME280;3145;42.726;23.342;2023-03-16T04:32:38;94720.16;;;1.87;100.00
6224;BME280;3145;42.726;23.342;2023-03-16T04:35:06;94719.59;;;1.93;100.00
6224;BME280;3145;42.726;23.342;2023-03-16T04:37:33;94726.97;;;1.97;100.00
6224;BME280;3145;42.726;23.342;2023-03-16T04:40:00;94716.06;;;1.84;100.00
6224;BME280;3145;42.726;23.342;2023-03-16T04:42:34;94731.41;;;1.87;100.00
6224;BME280;3145;42.726;23.342;2023-03-16T04:45:01;94728.13;;;1.85;100.00
6224;BME280;3145;42.726;23.342;2023-03-16T04:47:28;94737.16;;;1.91;100.00
6224;BME280;3145;42.726;23.342;2023-03-16T04:49:59;94745.78;;;1.91;100.00
6224;BME280;3145;42.726;23.342;2023-03-16T04:52:27;94740.56;;;1.91;100.00
6224;BME280;3145;42.726;23.342;2023-03-16T04:54:54;94730.88;;;1.74;100.00
6224;BME280;3145;42.726;23.342;2023-03-16T04:57:20;94748.66;;;1.88;100.00
6224;BME280;3145;42.726;23.342;2023-03-16T04:59:47;94757.13;;;2.00;100.00
6224;BME280;3145;42.726;23.342;2023-03-16T05:02:14;94750.53;;;2.05;100.00
6224;BME280;3145;42.726;23.342;2023-03-16T05:04:41;94758.19;;;2.07;100.00
6224;BME280;3145;42.726;23.342;2023-03-16T05:07:09;94771.91;;;2.09;100.00
6224;BME280;3145;42.726;23.342;2023-03-16T05:09:36;94722.53;;;1.80;100.00
6224;BME280;3145;42.726;23.342;2023-03-16T05:12:03;94756.31;;;1.99;100.00
6224;BME280;3145;42.726;23.342;2023-03-16T05:14:30;94769.47;;;1.98;100.00
6224;BME280;3145;42.726;23.342;2023-03-16T05:16:56;94766.47;;;1.93;100.00
6224;BME280;3145;42.726;23.342;2023-03-16T05:19:23;94778.66;;;1.92;100.00
6224;BME280;3145;42.726;23.342;2023-03-16T05:21:50;94758.72;;;1.74;100.00
6224;BME280;3145;42.726;23.342;2023-03-16T05:24:18;94781.00;;;1.95;100.00
6224;BME280;3145;42.726;23.342;2023-03-16T05:26:45;94772.50;;;1.84;100.00
6224;BME280;3145;42.726;23.342;2023-03-16T05:29:12;94788.94;;;1.94;100.00
6224;BME280;3145;42.726;23.342;2023-03-16T05:31:38;94766.66;;;1.72;100.00
6224;BME280;3145;42.726;23.342;2023-03-16T05:34:05;94710.72;;;1.30;100.00
6224;BME280;3145;42.726;23.342;2023-03-16T05:36:32;94789.50;;;1.78;100.00
6224;BME280;3145;42.726;23.342;2023-03-16T05:39:00;94799.13;;;1.78;100.00
6224;BME280;3145;42.726;23.342;2023-03-16T05:41:28;94803.22;;;1.80;100.00
6224;BME280;3145;42.726;23.342;2023-03-16T05:43:55;94794.44;;;1.81;100.00
6224;BME280;3145;42.726;23.342;2023-03-16T05:46:21;94805.69;;;1.91;100.00
6224;BME280;3145;42.726;23.342;2023-03-16T05:48:48;94812.25;;;1.95;100.00
6224;BME280;3145;42.726;23.342;2023-03-16T05:51:15;94811.16;;;1.88;100.00
6224;BME280;3145;42.726;23.342;2023-03-16T05:53:42;94791.28;;;1.87;100.00
6224;BME280;3145;42.726;23.342;2023-03-16T05:56:11;94827.44;;;2.00;100.00
6224;BME280;3145;42.726;23.342;2023-03-16T05:58:39;94821.81;;;2.04;100.00
6224;BME280;3145;42.726;23.342;2023-03-16T06:01:06;94818.50;;;2.02;100.00
6224;BME280;3145;42.726;23.342;2023-03-16T06:03:33;94788.97;;;1.84;100.00
6224;BME280;3145;42.726;23.342;2023-03-16T06:06:00;94764.31;;;1.69;100.00
6224;BME280;3145;42.726;23.342;2023-03-16T06:08:27;94835.09;;;2.11;100.00
6224;BME280;3145;42.726;23.342;2023-03-16T06:10:54;94733.69;;;1.44;100.00
6224;BME280;3145;42.726;23.342;2023-03-16T06:13:21;94833.00;;;2.14;100.00
6224;BME280;3145;42.726;23.342;2023-03-16T06:15:49;94784.88;;;1.82;100.00
6224;BME280;3145;42.726;23.342;2023-03-16T06:18:16;94831.09;;;2.16;100.00
6224;BME280;3145;42.726;23.342;2023-03-16T06:20:43;94848.38;;;2.17;100.00
6224;BME280;3145;42.726;23.342;2023-03-16T06:23:11;94848.09;;;2.20;100.00
6224;BME280;3145;42.726;23.342;2023-03-16T06:25:38;94821.81;;;2.04;100.00
6224;BME280;3145;42.726;23.342;2023-03-16T06:28:06;94856.56;;;2.22;100.00
6224;BME280;3145;42.726;23.342;2023-03-16T06:30:32;94857.94;;;2.26;100.00
6224;BME280;3145;42.726;23.342;2023-03-16T06:33:01;94842.59;;;2.23;100.00
6224;BME280;3145;42.726;23.342;2023-03-16T06:35:27;94764.72;;;1.65;100.00
6224;BME280;3145;42.726;23.342;2023-03-16T06:37:54;94868.59;;;2.42;100.00
6224;BME280;3145;42.726;23.342;2023-03-16T06:40:21;94871.75;;;2.46;100.00
6224;BME280;3145;42.726;23.342;2023-03-16T06:42:48;94864.34;;;2.41;100.00
6224;BME280;3145;42.726;23.342;2023-03-16T06:45:14;94877.66;;;2.38;100.00
6224;BME280;3145;42.726;23.342;2023-03-16T06:47:42;94887.78;;;2.41;100.00
6224;BME280;3145;42.726;23.342;2023-03-16T06:50:10;94882.69;;;2.49;100.00
6224;BME280;3145;42.726;23.342;2023-03-16T06:52:37;94894.94;;;2.49;100.00
6224;BME280;3145;42.726;23.342;2023-03-16T06:55:05;94879.31;;;2.39;100.00
6224;BME280;3145;42.726;23.342;2023-03-16T06:57:32;94899.84;;;2.52;100.00
6224;BME280;3145;42.726;23.342;2023-03-16T06:59:59;94901.47;;;2.62;100.00
6224;BME280;3145;42.726;23.342;2023-03-16T07:02:27;94857.09;;;2.35;100.00
6224;BME280;3145;42.726;23.342;2023-03-16T07:04:54;94786.63;;;1.91;100.00
6224;BME280;3145;42.726;23.342;2023-03-16T07:07:22;94910.72;;;2.47;100.00
6224;BME280;3145;42.726;23.342;2023-03-16T07:09:49;94913.59;;;2.44;100.00
6224;BME280;3145;42.726;23.342;2023-03-16T07:12:15;94892.63;;;2.27;100.00
6224;BME280;3145;42.726;23.342;2023-03-16T07:14:42;94860.72;;;2.15;100.00
6224;BME280;3145;42.726;23.342;2023-03-16T07:17:09;94911.50;;;2.48;100.00
6224;BME280;3145;42.726;23.342;2023-03-16T07:19:36;94916.97;;;2.54;100.00
6224;BME280;3145;42.726;23.342;2023-03-16T07:22:03;94906.53;;;2.54;100.00
6224;BME280;3145;42.726;23.342;2023-03-16T07:24:31;94923.97;;;2.63;100.00
6224;BME280;3145;42.726;23.342;2023-03-16T07:26:57;94893.72;;;2.43;100.00
6224;BME280;3145;42.726;23.342;2023-03-16T07:29:24;94925.72;;;2.72;100.00
6224;BME280;3145;42.726;23.342;2023-03-16T07:31:51;94931.75;;;2.73;100.00
6224;BME280;3145;42.726;23.342;2023-03-16T07:34:18;94926.41;;;2.74;100.00
6224;BME280;3145;42.726;23.342;2023-03-16T07:36:45;94908.06;;;2.57;100.00
6224;BME280;3145;42.726;23.342;2023-03-16T07:39:13;94940.13;;;2.76;100.00
6224;BME280;3145;42.726;23.342;2023-03-16T07:41:43;94918.72;;;2.73;100.00
6224;BME280;3145;42.726;23.342;2023-03-16T07:44:10;94935.81;;;2.94;100.00
6224;BME280;3145;42.726;23.342;2023-03-16T07:46:37;94944.44;;;2.95;100.00
6224;BME280;3145;42.726;23.342;2023-03-16T07:49:03;94936.81;;;3.11;100.00
6224;BME280;3145;42.726;23.342;2023-03-16T07:51:30;94925.91;;;2.98;100.00
6224;BME280;3145;42.726;23.342;2023-03-16T07:53:57;94947.94;;;3.13;100.00
6224;BME280;3145;42.726;23.342;2023-03-16T07:56:24;94941.66;;;3.06;100.00
6224;BME280;3145;42.726;23.342;2023-03-16T07:58:52;94918.31;;;3.04;100.00
6224;BME280;3145;42.726;23.342;2023-03-16T08:01:18;94944.19;;;3.25;100.00
6224;BME280;3145;42.726;23.342;2023-03-16T08:03:46;94951.09;;;3.43;100.00
6224;BME280;3145;42.726;23.342;2023-03-16T08:06:13;94948.03;;;3.48;100.00
6224;BME280;3145;42.726;23.342;2023-03-16T08:08:40;94947.69;;;3.60;100.00
6224;BME280;3145;42.726;23.342;2023-03-16T08:11:07;94947.38;;;3.63;100.00
6224;BME280;3145;42.726;23.342;2023-03-16T08:13:34;94949.41;;;3.69;100.00
6224;BME280;3145;42.726;23.342;2023-03-16T08:16:02;94841.25;;;3.10;100.00
6224;BME280;3145;42.726;23.342;2023-03-16T08:18:34;94930.44;;;3.50;100.00
6224;BME280;3145;42.726;23.342;2023-03-16T08:21:01;94957.22;;;3.69;100.00
6224;BME280;3145;42.726;23.342;2023-03-16T08:23:28;94965.97;;;3.60;100.00
6224;BME280;3145;42.726;23.342;2023-03-16T08:25:57;94967.25;;;3.74;100.00
6224;BME280;3145;42.726;23.342;2023-03-16T08:28:25;94964.78;;;3.72;100.00
6224;BME280;3145;42.726;23.342;2023-03-16T08:30:52;94957.41;;;3.68;100.00
6224;BME280;3145;42.726;23.342;2023-03-16T08:33:21;94979.47;;;3.73;100.00
6224;BME280;3145;42.726;23.342;2023-03-16T08:35:48;94971.56;;;3.65;100.00
6224;BME280;3145;42.726;23.342;2023-03-16T08:38:15;94975.13;;;3.64;100.00
6224;BME280;3145;42.726;23.342;2023-03-16T08:40:42;94985.97;;;3.69;100.00
6224;BME280;3145;42.726;23.342;2023-03-16T08:43:13;94976.78;;;3.65;100.00
6224;BME280;3145;42.726;23.342;2023-03-16T08:45:39;94982.47;;;3.61;100.00
6224;BME280;3145;42.726;23.342;2023-03-16T08:48:07;94960.22;;;3.57;100.00
6224;BME280;3145;42.726;23.342;2023-03-16T08:50:39;94979.47;;;3.73;100.00
6224;BME280;3145;42.726;23.342;2023-03-16T08:53:07;94982.63;;;3.77;100.00
6224;BME280;3145;42.726;23.342;2023-03-16T08:55:35;94952.63;;;3.63;100.00
6224;BME280;3145;42.726;23.342;2023-03-16T08:58:02;94998.06;;;3.97;100.00
6224;BME280;3145;42.726;23.342;2023-03-16T09:00:29;94969.88;;;3.74;99.24
6224;BME280;3145;42.726;23.342;2023-03-16T09:02:56;94976.28;;;3.79;99.61
6224;BME280;3145;42.726;23.342;2023-03-16T09:05:23;94962.91;;;3.65;99.43
6224;BME280;3145;42.726;23.342;2023-03-16T09:07:51;94980.81;;;3.77;98.36
6224;BME280;3145;42.726;23.342;2023-03-16T09:10:19;95012.16;;;3.77;98.56
6224;BME280;3145;42.726;23.342;2023-03-16T09:12:48;94988.84;;;3.76;98.84
6224;BME280;3145;42.726;23.342;2023-03-16T09:15:17;95009.06;;;3.91;99.18
6224;BME280;3145;42.726;23.342;2023-03-16T09:17:44;95009.53;;;4.04;100.00
6224;BME280;3145;42.726;23.342;2023-03-16T09:20:12;95014.63;;;4.06;99.33
6224;BME280;3145;42.726;23.342;2023-03-16T09:22:40;95009.69;;;3.85;98.75
6224;BME280;3145;42.726;23.342;2023-03-16T09:25:09;95016.53;;;3.86;98.20
6224;BME280;3145;42.726;23.342;2023-03-16T09:27:36;95013.63;;;3.89;98.66
6224;BME280;3145;42.726;23.342;2023-03-16T09:30:03;95012.53;;;3.92;98.72
6224;BME280;3145;42.726;23.342;2023-03-16T09:32:30;95005.13;;;3.87;98.27
6224;BME280;3145;42.726;23.342;2023-03-16T09:34:57;94997.09;;;3.71;97.59
6224;BME280;3145;42.726;23.342;2023-03-16T09:37:24;94990.00;;;3.64;97.25
6224;BME280;3145;42.726;23.342;2023-03-16T09:39:51;94975.75;;;3.58;97.29
6224;BME280;3145;42.726;23.342;2023-03-16T09:42:25;95021.28;;;3.73;97.61
6224;BME280;3145;42.726;23.342;2023-03-16T09:45:05;94990.81;;;3.64;97.10
6224;BME280;3145;42.726;23.342;2023-03-16T09:47:35;94980.00;;;3.59;97.25
6224;BME280;3145;42.726;23.342;2023-03-16T09:50:05;94987.16;;;3.75;97.24
6224;BME280;3145;42.726;23.342;2023-03-16T09:52:39;95020.50;;;3.90;97.26
6224;BME280;3145;42.726;23.342;2023-03-16T09:55:18;94998.59;;;3.74;97.63
6224;BME280;3145;42.726;23.342;2023-03-16T09:57:50;95027.75;;;3.96;98.14
6224;BME280;3145;42.726;23.342;2023-03-16T10:00:19;94958.03;;;3.52;97.99
6224;BME280;3145;42.726;23.342;2023-03-16T10:03:10;95022.22;;;3.99;97.89
6224;BME280;3145;42.726;23.342;2023-03-16T10:05:42;95019.75;;;3.98;98.00
6224;BME280;3145;42.726;23.342;2023-03-16T10:08:13;94936.53;;;3.41;97.77
6224;BME280;3145;42.726;23.342;2023-03-16T10:13:36;95018.06;;;4.06;98.85
6224;BME280;3145;42.726;23.342;2023-03-16T10:16:08;95031.50;;;4.11;98.89
6224;BME280;3145;42.726;23.342;2023-03-16T10:18:40;95010.88;;;4.08;97.73
6224;BME280;3145;42.726;23.342;2023-03-16T10:21:11;95017.25;;;4.23;97.46
6224;BME280;3145;42.726;23.342;2023-03-16T10:23:40;95008.34;;;4.16;97.77
6224;BME280;3145;42.726;23.342;2023-03-16T10:26:12;94998.94;;;4.23;96.92
6224;BME280;3145;42.726;23.342;2023-03-16T10:28:41;95003.28;;;4.32;97.48
6224;BME280;3145;42.726;23.342;2023-03-16T10:31:11;95005.88;;;4.50;96.37
6224;BME280;3145;42.726;23.342;2023-03-16T10:33:38;95031.28;;;4.57;96.38
6224;BME280;3145;42.726;23.342;2023-03-16T10:36:12;95023.25;;;4.76;96.39
6224;BME280;3145;42.726;23.342;2023-03-16T10:38:41;95022.97;;;4.79;95.92
6224;BME280;3145;42.726;23.342;2023-03-16T10:41:23;95013.22;;;4.89;95.95
6224;BME280;3145;42.726;23.342;2023-03-16T10:43:53;95015.28;;;5.03;95.00
6224;BME280;3145;42.726;23.342;2023-03-16T10:46:22;94986.22;;;4.89;95.02
6224;BME280;3145;42.726;23.342;2023-03-16T10:48:53;95007.19;;;5.15;94.67
6224;BME280;3145;42.726;23.342;2023-03-16T10:51:26;95023.47;;;5.34;94.56
6224;BME280;3145;42.726;23.342;2023-03-16T10:53:56;95024.00;;;5.38;95.14
6224;BME280;3145;42.726;23.342;2023-03-16T10:56:24;95018.09;;;5.36;95.20
6224;BME280;3145;42.726;23.342;2023-03-16T10:58:53;95007.38;;;5.21;93.93
6224;BME280;3145;42.726;23.342;2023-03-16T11:01:23;95018.69;;;5.22;92.43
6224;BME280;3145;42.726;23.342;2023-03-16T11:03:52;94992.91;;;5.09;92.08
6224;BME280;3145;42.726;23.342;2023-03-16T11:06:23;95028.22;;;5.31;91.95
6224;BME280;3145;42.726;23.342;2023-03-16T11:08:50;95010.78;;;5.14;91.35
6224;BME280;3145;42.726;23.342;2023-03-16T11:11:23;95001.75;;;5.08;91.35
6224;BME280;3145;42.726;23.342;2023-03-16T11:13:57;95028.16;;;5.23;90.57
6224;BME280;3145;42.726;23.342;2023-03-16T11:16:29;95015.03;;;5.15;90.19
6224;BME280;3145;42.726;23.342;2023-03-16T11:18:59;95029.44;;;5.19;89.01
6224;BME280;3145;42.726;23.342;2023-03-16T11:21:37;95028.63;;;5.18;90.48
6224;BME280;3145;42.726;23.342;2023-03-16T11:24:14;95017.94;;;5.12;90.01
6224;BME280;3145;42.726;23.342;2023-03-16T11:26:43;95015.97;;;5.06;89.09
6224;BME280;3145;42.726;23.342;2023-03-16T11:29:18;95028.06;;;5.07;89.67
6224;BME280;3145;42.726;23.342;2023-03-16T11:31:50;95027.19;;;4.98;89.79
6224;BME280;3145;42.726;23.342;2023-03-16T11:34:24;95025.28;;;4.82;89.85
6224;BME280;3145;42.726;23.342;2023-03-16T11:36:54;95006.09;;;4.56;90.56
6224;BME280;3145;42.726;23.342;2023-03-16T11:39:34;95032.84;;;4.85;91.76
6224;BME280;3145;42.726;23.342;2023-03-16T11:42:27;95032.56;;;4.96;91.44
6224;BME280;3145;42.726;23.342;2023-03-16T11:45:00;95019.47;;;4.96;91.03
6224;BME280;3145;42.726;23.342;2023-03-16T11:47:42;94942.59;;;4.46;90.40
6224;BME280;3145;42.726;23.342;2023-03-16T11:50:16;94919.47;;;4.34;89.94
6224;BME280;3145;42.726;23.342;2023-03-16T11:52:53;95025.72;;;4.78;89.97
6224;BME280;3145;42.726;23.342;2023-03-16T11:55:30;95034.47;;;4.86;90.17
6224;BME280;3145;42.726;23.342;2023-03-16T11:58:16;95037.59;;;4.90;90.05
6224;BME280;3145;42.726;23.342;2023-03-16T12:00:54;95031.06;;;4.94;90.51
6224;BME280;3145;42.726;23.342;2023-03-16T12:03:43;95037.13;;;4.94;91.12
6224;BME280;3145;42.726;23.342;2023-03-16T12:06:27;94954.28;;;4.34;90.51
6224;BME280;3145;42.726;23.342;2023-03-16T12:09:06;95041.03;;;4.90;91.78
6224;BME280;3145;42.726;23.342;2023-03-16T12:11:41;95043.16;;;4.69;92.20
6224;BME280;3145;42.726;23.342;2023-03-16T12:14:15;95032.69;;;4.69;92.49
6224;BME280;3145;42.726;23.342;2023-03-16T12:16:50;95038.00;;;4.77;92.28
6224;BME280;3145;42.726;23.342;2023-03-16T12:19:23;94998.09;;;4.40;92.63
6224;BME280;3145;42.726;23.342;2023-03-16T12:22:00;95006.91;;;4.57;93.43
6224;BME280;3145;42.726;23.342;2023-03-16T12:24:41;95053.44;;;4.88;93.43
6224;BME280;3145;42.726;23.342;2023-03-16T12:27:13;95058.03;;;4.86;93.54
6224;BME280;3145;42.726;23.342;2023-03-16T12:29:52;95050.16;;;4.86;94.22
6224;BME280;3145;42.726;23.342;2023-03-16T12:32:32;94963.31;;;4.22;93.79
6224;BME280;3145;42.726;23.342;2023-03-16T12:35:12;95058.78;;;4.79;93.23
6224;BME280;3145;42.726;23.342;2023-03-16T12:37:44;95052.88;;;4.77;93.14
6224;BME280;3145;42.726;23.342;2023-03-16T12:40:25;94979.16;;;4.21;93.51
6224;BME280;3145;42.726;23.342;2023-03-16T12:43:05;95043.69;;;4.55;93.58
6224;BME280;3145;42.726;23.342;2023-03-16T12:45:42;95040.03;;;4.48;93.83
6224;BME280;3145;42.726;23.342;2023-03-16T12:48:20;95051.53;;;4.38;94.16
6224;BME280;3145;42.726;23.342;2023-03-16T12:50:54;94795.56;;;2.79;94.39
6224;BME280;3145;42.726;23.342;2023-03-16T12:53:39;95077.06;;;4.26;95.83
6224;BME280;3145;42.726;23.342;2023-03-16T12:56:07;95078.22;;;4.41;96.41
6224;BME280;3145;42.726;23.342;2023-03-16T12:58:40;95070.66;;;4.38;96.57
6224;BME280;3145;42.726;23.342;2023-03-16T13:01:09;95069.72;;;4.12;97.62
6224;BME280;3145;42.726;23.342;2023-03-16T13:03:40;95081.94;;;4.21;98.25
6224;BME280;3145;42.726;23.342;2023-03-16T13:06:16;95040.44;;;3.91;100.00
6224;BME280;3145;42.726;23.342;2023-03-16T13:08:47;95084.84;;;4.18;100.00
6224;BME280;3145;42.726;23.342;2023-03-16T13:11:15;95074.28;;;4.10;100.00
6224;BME280;3145;42.726;23.342;2023-03-16T13:13:50;95062.97;;;3.92;100.00
6224;BME280;3145;42.726;23.342;2023-03-16T13:16:26;95091.47;;;4.13;100.00
6224;BME280;3145;42.726;23.342;2023-03-16T13:18:55;94993.38;;;3.74;100.00
6224;BME280;3145;42.726;23.342;2023-03-16T13:21:35;95058.91;;;4.07;100.00
6224;BME280;3145;42.726;23.342;2023-03-16T13:24:14;95092.16;;;4.32;100.00
6224;BME280;3145;42.726;23.342;2023-03-16T13:26:49;95071.06;;;4.16;100.00
6224;BME280;3145;42.726;23.342;2023-03-16T13:29:22;95097.09;;;4.35;100.00
6224;BME280;3145;42.726;23.342;2023-03-16T13:31:50;95076.31;;;4.16;100.00